sensor_id;sensor_type;location;lat;lon;timestamp;P1;durP1;ratioP1;P2;durP2;ratioP2
6564;SDS011;3316;44.118;27.258;2022-08-14T00:02:10;20.92;;;13.07;;
6564;SDS011;3316;44.118;27.258;2022-08-14T00:04:36;19.30;;;13.60;;
6564;SDS011;3316;44.118;27.258;2022-08-14T00:07:03;18.00;;;12.30;;
6564;SDS011;3316;44.118;27.258;2022-08-14T00:09:29;24.20;;;14.50;;
6564;SDS011;3316;44.118;27.258;2022-08-14T00:11:55;23.63;;;12.65;;
6564;SDS011;3316;44.118;27.258;2022-08-14T00:14:20;19.42;;;13.25;;
6564;SDS011;3316;44.118;27.258;2022-08-14T00:16:47;22.35;;;13.07;;
6564;SDS011;3316;44.118;27.258;2022-08-14T00:19:14;17.10;;;12.45;;
6564;SDS011;3316;44.118;27.258;2022-08-14T00:21:40;20.13;;;12.88;;
6564;SDS011;3316;44.118;27.258;2022-08-14T00:24:05;19.35;;;12.55;;
6564;SDS011;3316;44.118;27.258;2022-08-14T00:26:31;21.02;;;12.88;;
6564;SDS011;3316;44.118;27.258;2022-08-14T00:28:56;16.75;;;11.63;;
6564;SDS011;3316;44.118;27.258;2022-08-14T00:31:22;16.40;;;11.55;;
6564;SDS011;3316;44.118;27.258;2022-08-14T00:33:48;19.38;;;12.65;;
6564;SDS011;3316;44.118;27.258;2022-08-14T00:36:13;16.15;;;11.32;;
6564;SDS011;3316;44.118;27.258;2022-08-14T00:38:39;18.17;;;12.60;;
6564;SDS011;3316;44.118;27.258;2022-08-14T00:41:06;17.55;;;12.25;;
6564;SDS011;3316;44.118;27.258;2022-08-14T00:43:35;19.98;;;12.55;;
6564;SDS011;3316;44.118;27.258;2022-08-14T00:46:06;19.65;;;13.48;;
6564;SDS011;3316;44.118;27.258;2022-08-14T00:48:34;24.40;;;13.57;;
6564;SDS011;3316;44.118;27.258;2022-08-14T00:51:02;21.85;;;13.43;;
6564;SDS011;3316;44.118;27.258;2022-08-14T00:53:29;19.27;;;13.57;;
6564;SDS011;3316;44.118;27.258;2022-08-14T00:55:56;20.73;;;13.70;;
6564;SDS011;3316;44.118;27.258;2022-08-14T00:58:22;19.50;;;14.05;;
6564;SDS011;3316;44.118;27.258;2022-08-14T01:00:57;20.55;;;14.07;;
6564;SDS011;3316;44.118;27.258;2022-08-14T01:03:33;20.35;;;13.77;;
6564;SDS011;3316;44.118;27.258;2022-08-14T01:06:02;22.25;;;14.30;;
6564;SDS011;3316;44.118;27.258;2022-08-14T01:08:28;22.30;;;13.95;;
6564;SDS011;3316;44.118;27.258;2022-08-14T01:10:55;21.77;;;13.93;;
6564;SDS011;3316;44.118;27.258;2022-08-14T01:13:30;20.50;;;14.23;;
6564;SDS011;3316;44.118;27.258;2022-08-14T01:15:59;23.02;;;14.63;;
6564;SDS011;3316;44.118;27.258;2022-08-14T01:18:27;22.27;;;15.05;;
6564;SDS011;3316;44.118;27.258;2022-08-14T01:21:13;24.45;;;14.05;;
6564;SDS011;3316;44.118;27.258;2022-08-14T01:23:44;20.73;;;13.63;;
6564;SDS011;3316;44.118;27.258;2022-08-14T01:26:12;22.90;;;13.48;;
6564;SDS011;3316;44.118;27.258;2022-08-14T01:28:40;17.60;;;13.45;;
6564;SDS011;3316;44.118;27.258;2022-08-14T01:31:16;20.02;;;12.98;;
6564;SDS011;3316;44.118;27.258;2022-08-14T01:33:44;23.00;;;13.98;;
6564;SDS011;3316;44.118;27.258;2022-08-14T01:36:12;18.55;;;13.73;;
6564;SDS011;3316;44.118;27.258;2022-08-14T01:38:41;20.45;;;13.55;;
6564;SDS011;3316;44.118;27.258;2022-08-14T01:41:10;24.15;;;14.65;;
6564;SDS011;3316;44.118;27.258;2022-08-14T01:43:48;24.33;;;14.38;;
6564;SDS011;3316;44.118;27.258;2022-08-14T01:46:21;20.90;;;14.45;;
6564;SDS011;3316;44.118;27.258;2022-08-14T01:48:48;19.05;;;13.18;;
6564;SDS011;3316;44.118;27.258;2022-08-14T01:51:17;21.83;;;14.13;;
6564;SDS011;3316;44.118;27.258;2022-08-14T01:53:47;22.85;;;14.40;;
6564;SDS011;3316;44.118;27.258;2022-08-14T01:56:18;20.42;;;14.35;;
6564;SDS011;3316;44.118;27.258;2022-08-14T01:58:44;22.38;;;13.80;;
6564;SDS011;3316;44.118;27.258;2022-08-14T02:01:13;23.30;;;14.82;;
6564;SDS011;3316;44.118;27.258;2022-08-14T02:03:43;22.10;;;14.52;;
6564;SDS011;3316;44.118;27.258;2022-08-14T02:06:09;22.15;;;15.07;;
6564;SDS011;3316;44.118;27.258;2022-08-14T02:08:35;20.88;;;13.50;;
6564;SDS011;3316;44.118;27.258;2022-08-14T02:11:02;22.90;;;14.75;;
6564;SDS011;3316;44.118;27.258;2022-08-14T02:13:47;23.17;;;14.30;;
6564;SDS011;3316;44.118;27.258;2022-08-14T02:16:16;19.48;;;14.05;;
6564;SDS011;3316;44.118;27.258;2022-08-14T02:18:44;18.42;;;13.80;;
6564;SDS011;3316;44.118;27.258;2022-08-14T02:21:10;19.10;;;13.73;;
6564;SDS011;3316;44.118;27.258;2022-08-14T02:23:38;21.70;;;14.95;;
6564;SDS011;3316;44.118;27.258;2022-08-14T02:26:13;22.70;;;13.70;;
6564;SDS011;3316;44.118;27.258;2022-08-14T02:28:40;23.38;;;15.02;;
6564;SDS011;3316;44.118;27.258;2022-08-14T02:31:06;24.33;;;13.63;;
6564;SDS011;3316;44.118;27.258;2022-08-14T02:33:33;26.48;;;14.40;;
6564;SDS011;3316;44.118;27.258;2022-08-14T02:36:00;23.08;;;14.38;;
6564;SDS011;3316;44.118;27.258;2022-08-14T02:38:29;25.45;;;14.45;;
6564;SDS011;3316;44.118;27.258;2022-08-14T02:40:57;23.23;;;14.80;;
6564;SDS011;3316;44.118;27.258;2022-08-14T02:43:23;27.15;;;15.23;;
6564;SDS011;3316;44.118;27.258;2022-08-14T02:45:50;21.67;;;14.32;;
6564;SDS011;3316;44.118;27.258;2022-08-14T02:48:16;24.83;;;15.23;;
6564;SDS011;3316;44.118;27.258;2022-08-14T02:50:41;24.10;;;15.60;;
6564;SDS011;3316;44.118;27.258;2022-08-14T02:53:08;27.23;;;15.57;;
6564;SDS011;3316;44.118;27.258;2022-08-14T02:55:34;21.13;;;13.98;;
6564;SDS011;3316;44.118;27.258;2022-08-14T02:58:00;21.15;;;14.77;;
6564;SDS011;3316;44.118;27.258;2022-08-14T03:00:25;22.83;;;14.52;;
6564;SDS011;3316;44.118;27.258;2022-08-14T03:02:51;25.05;;;15.70;;
6564;SDS011;3316;44.118;27.258;2022-08-14T03:05:16;27.38;;;15.63;;
6564;SDS011;3316;44.118;27.258;2022-08-14T03:07:42;20.02;;;14.90;;
6564;SDS011;3316;44.118;27.258;2022-08-14T03:10:08;23.45;;;15.80;;
6564;SDS011;3316;44.118;27.258;2022-08-14T03:12:34;20.67;;;15.15;;
6564;SDS011;3316;44.118;27.258;2022-08-14T03:15:01;26.90;;;14.85;;
6564;SDS011;3316;44.118;27.258;2022-08-14T03:17:34;25.73;;;15.68;;
6564;SDS011;3316;44.118;27.258;2022-08-14T03:19:59;23.63;;;15.35;;
6564;SDS011;3316;44.118;27.258;2022-08-14T03:22:25;26.75;;;14.98;;
6564;SDS011;3316;44.118;27.258;2022-08-14T03:24:51;24.35;;;15.02;;
6564;SDS011;3316;44.118;27.258;2022-08-14T03:27:17;24.67;;;15.52;;
6564;SDS011;3316;44.118;27.258;2022-08-14T03:29:42;25.70;;;14.70;;
6564;SDS011;3316;44.118;27.258;2022-08-14T03:32:08;26.13;;;15.98;;
6564;SDS011;3316;44.118;27.258;2022-08-14T03:34:33;25.88;;;15.77;;
6564;SDS011;3316;44.118;27.258;2022-08-14T03:36:59;24.27;;;15.07;;
6564;SDS011;3316;44.118;27.258;2022-08-14T03:39:24;25.58;;;16.35;;
6564;SDS011;3316;44.118;27.258;2022-08-14T03:41:52;27.17;;;16.27;;
6564;SDS011;3316;44.118;27.258;2022-08-14T03:44:19;27.33;;;15.32;;
6564;SDS011;3316;44.118;27.258;2022-08-14T03:46:45;26.35;;;15.38;;
6564;SDS011;3316;44.118;27.258;2022-08-14T03:49:10;28.38;;;16.38;;
6564;SDS011;3316;44.118;27.258;2022-08-14T03:51:36;31.48;;;16.70;;
6564;SDS011;3316;44.118;27.258;2022-08-14T03:54:03;24.80;;;15.52;;
6564;SDS011;3316;44.118;27.258;2022-08-14T03:56:32;27.25;;;15.73;;
6564;SDS011;3316;44.118;27.258;2022-08-14T03:59:01;23.63;;;16.10;;
6564;SDS011;3316;44.118;27.258;2022-08-14T04:01:32;21.30;;;15.25;;
6564;SDS011;3316;44.118;27.258;2022-08-14T04:03:58;20.67;;;14.65;;
6564;SDS011;3316;44.118;27.258;2022-08-14T04:06:26;24.98;;;15.90;;
6564;SDS011;3316;44.118;27.258;2022-08-14T04:08:53;27.05;;;14.35;;
6564;SDS011;3316;44.118;27.258;2022-08-14T04:11:18;23.73;;;15.73;;
6564;SDS011;3316;44.118;27.258;2022-08-14T04:13:45;26.75;;;15.20;;
6564;SDS011;3316;44.118;27.258;2022-08-14T04:16:14;23.83;;;16.00;;
6564;SDS011;3316;44.118;27.258;2022-08-14T04:18:43;22.13;;;14.65;;
6564;SDS011;3316;44.118;27.258;2022-08-14T04:21:10;22.05;;;15.15;;
6564;SDS011;3316;44.118;27.258;2022-08-14T04:23:37;20.25;;;15.48;;
6564;SDS011;3316;44.118;27.258;2022-08-14T04:26:04;19.25;;;14.55;;
6564;SDS011;3316;44.118;27.258;2022-08-14T04:28:32;25.65;;;16.23;;
6564;SDS011;3316;44.118;27.258;2022-08-14T04:31:00;24.45;;;14.77;;
6564;SDS011;3316;44.118;27.258;2022-08-14T04:33:26;23.17;;;15.80;;
6564;SDS011;3316;44.118;27.258;2022-08-14T04:35:53;22.70;;;15.52;;
6564;SDS011;3316;44.118;27.258;2022-08-14T04:38:19;23.15;;;15.18;;
6564;SDS011;3316;44.118;27.258;2022-08-14T04:41:04;25.15;;;15.18;;
6564;SDS011;3316;44.118;27.258;2022-08-14T04:43:49;19.75;;;14.48;;
6564;SDS011;3316;44.118;27.258;2022-08-14T04:46:16;23.80;;;14.18;;
6564;SDS011;3316;44.118;27.258;2022-08-14T04:48:43;24.13;;;14.82;;
6564;SDS011;3316;44.118;27.258;2022-08-14T04:51:13;20.30;;;14.25;;
6564;SDS011;3316;44.118;27.258;2022-08-14T04:53:42;22.23;;;15.00;;
6564;SDS011;3316;44.118;27.258;2022-08-14T04:56:14;19.63;;;15.07;;
6564;SDS011;3316;44.118;27.258;2022-08-14T04:58:41;22.63;;;14.75;;
6564;SDS011;3316;44.118;27.258;2022-08-14T05:01:08;22.38;;;15.77;;
6564;SDS011;3316;44.118;27.258;2022-08-14T05:03:35;21.75;;;15.55;;
6564;SDS011;3316;44.118;27.258;2022-08-14T05:06:08;20.63;;;14.85;;
6564;SDS011;3316;44.118;27.258;2022-08-14T05:08:35;20.05;;;15.55;;
6564;SDS011;3316;44.118;27.258;2022-08-14T05:11:03;24.25;;;15.55;;
6564;SDS011;3316;44.118;27.258;2022-08-14T05:13:31;25.77;;;14.90;;
6564;SDS011;3316;44.118;27.258;2022-08-14T05:15:58;23.83;;;15.82;;
6564;SDS011;3316;44.118;27.258;2022-08-14T05:18:27;23.95;;;15.38;;
6564;SDS011;3316;44.118;27.258;2022-08-14T05:20:56;26.55;;;14.15;;
6564;SDS011;3316;44.118;27.258;2022-08-14T05:23:27;23.85;;;15.93;;
6564;SDS011;3316;44.118;27.258;2022-08-14T05:25:54;22.08;;;15.02;;
6564;SDS011;3316;44.118;27.258;2022-08-14T05:28:26;19.38;;;15.25;;
6564;SDS011;3316;44.118;27.258;2022-08-14T05:30:57;23.20;;;15.40;;
6564;SDS011;3316;44.118;27.258;2022-08-14T05:33:25;19.70;;;14.60;;
6564;SDS011;3316;44.118;27.258;2022-08-14T05:35:53;24.60;;;15.05;;
6564;SDS011;3316;44.118;27.258;2022-08-14T05:38:32;25.95;;;15.98;;
6564;SDS011;3316;44.118;27.258;2022-08-14T05:41:03;22.40;;;15.40;;
6564;SDS011;3316;44.118;27.258;2022-08-14T05:43:30;23.77;;;15.20;;
6564;SDS011;3316;44.118;27.258;2022-08-14T05:45:57;20.92;;;15.88;;
6564;SDS011;3316;44.118;27.258;2022-08-14T05:48:23;23.85;;;15.77;;
6564;SDS011;3316;44.118;27.258;2022-08-14T05:50:50;23.77;;;16.02;;
6564;SDS011;3316;44.118;27.258;2022-08-14T05:53:16;21.25;;;16.08;;
6564;SDS011;3316;44.118;27.258;2022-08-14T05:55:42;19.88;;;15.80;;
6564;SDS011;3316;44.118;27.258;2022-08-14T05:58:08;28.65;;;15.68;;
6564;SDS011;3316;44.118;27.258;2022-08-14T06:00:35;24.05;;;15.75;;
6564;SDS011;3316;44.118;27.258;2022-08-14T06:03:26;26.38;;;16.05;;
6564;SDS011;3316;44.118;27.258;2022-08-14T06:05:51;26.48;;;16.13;;
6564;SDS011;3316;44.118;27.258;2022-08-14T06:08:19;22.08;;;16.27;;
6564;SDS011;3316;44.118;27.258;2022-08-14T06:10:47;27.52;;;15.75;;
6564;SDS011;3316;44.118;27.258;2022-08-14T06:13:14;27.50;;;16.02;;
6564;SDS011;3316;44.118;27.258;2022-08-14T06:15:40;24.55;;;16.08;;
6564;SDS011;3316;44.118;27.258;2022-08-14T06:18:06;25.55;;;16.80;;
6564;SDS011;3316;44.118;27.258;2022-08-14T06:20:31;21.52;;;16.63;;
6564;SDS011;3316;44.118;27.258;2022-08-14T06:22:57;27.55;;;16.70;;
6564;SDS011;3316;44.118;27.258;2022-08-14T06:25:23;23.30;;;16.27;;
6564;SDS011;3316;44.118;27.258;2022-08-14T06:27:49;23.25;;;15.77;;
6564;SDS011;3316;44.118;27.258;2022-08-14T06:30:21;28.45;;;15.55;;
6564;SDS011;3316;44.118;27.258;2022-08-14T06:32:49;27.48;;;16.95;;
6564;SDS011;3316;44.118;27.258;2022-08-14T06:35:15;23.00;;;16.63;;
6564;SDS011;3316;44.118;27.258;2022-08-14T06:40:17;25.58;;;16.10;;
6564;SDS011;3316;44.118;27.258;2022-08-14T06:42:45;26.45;;;17.08;;
6564;SDS011;3316;44.118;27.258;2022-08-14T06:45:11;23.27;;;16.23;;
6564;SDS011;3316;44.118;27.258;2022-08-14T06:47:37;26.30;;;15.98;;
6564;SDS011;3316;44.118;27.258;2022-08-14T06:50:12;26.40;;;15.93;;
6564;SDS011;3316;44.118;27.258;2022-08-14T06:52:40;22.52;;;16.30;;
6564;SDS011;3316;44.118;27.258;2022-08-14T06:55:06;22.15;;;16.30;;
6564;SDS011;3316;44.118;27.258;2022-08-14T06:57:37;24.88;;;17.05;;
6564;SDS011;3316;44.118;27.258;2022-08-14T07:00:08;20.90;;;15.43;;
6564;SDS011;3316;44.118;27.258;2022-08-14T07:02:35;24.13;;;16.55;;
6564;SDS011;3316;44.118;27.258;2022-08-14T07:05:19;19.63;;;15.00;;
6564;SDS011;3316;44.118;27.258;2022-08-14T07:08:03;23.67;;;15.60;;
6564;SDS011;3316;44.118;27.258;2022-08-14T07:10:30;24.00;;;15.68;;
6564;SDS011;3316;44.118;27.258;2022-08-14T07:12:56;24.95;;;17.48;;
6564;SDS011;3316;44.118;27.258;2022-08-14T07:15:22;22.50;;;15.05;;
6564;SDS011;3316;44.118;27.258;2022-08-14T07:17:48;25.50;;;16.63;;
6564;SDS011;3316;44.118;27.258;2022-08-14T07:20:15;22.25;;;15.45;;
6564;SDS011;3316;44.118;27.258;2022-08-14T07:22:45;25.88;;;16.60;;
6564;SDS011;3316;44.118;27.258;2022-08-14T07:25:11;22.65;;;16.73;;
6564;SDS011;3316;44.118;27.258;2022-08-14T07:27:40;27.60;;;15.38;;
6564;SDS011;3316;44.118;27.258;2022-08-14T07:30:06;23.35;;;16.70;;
6564;SDS011;3316;44.118;27.258;2022-08-14T07:32:33;21.35;;;15.45;;
6564;SDS011;3316;44.118;27.258;2022-08-14T07:34:58;24.83;;;15.85;;
6564;SDS011;3316;44.118;27.258;2022-08-14T07:37:24;20.48;;;15.05;;
6564;SDS011;3316;44.118;27.258;2022-08-14T07:39:49;24.02;;;16.38;;
6564;SDS011;3316;44.118;27.258;2022-08-14T07:42:15;27.58;;;15.98;;
6564;SDS011;3316;44.118;27.258;2022-08-14T07:44:41;20.67;;;15.48;;
6564;SDS011;3316;44.118;27.258;2022-08-14T07:47:06;27.77;;;16.17;;
6564;SDS011;3316;44.118;27.258;2022-08-14T07:49:32;22.00;;;14.68;;
6564;SDS011;3316;44.118;27.258;2022-08-14T07:51:58;24.00;;;17.23;;
6564;SDS011;3316;44.118;27.258;2022-08-14T07:54:25;25.98;;;16.83;;
6564;SDS011;3316;44.118;27.258;2022-08-14T07:56:51;18.27;;;14.80;;
6564;SDS011;3316;44.118;27.258;2022-08-14T07:59:17;20.70;;;15.45;;
6564;SDS011;3316;44.118;27.258;2022-08-14T08:01:46;20.05;;;15.40;;
6564;SDS011;3316;44.118;27.258;2022-08-14T08:04:12;22.52;;;15.05;;
6564;SDS011;3316;44.118;27.258;2022-08-14T08:06:37;26.70;;;15.98;;
6564;SDS011;3316;44.118;27.258;2022-08-14T08:09:03;22.73;;;16.02;;
6564;SDS011;3316;44.118;27.258;2022-08-14T08:11:33;85.40;;;23.85;;
6564;SDS011;3316;44.118;27.258;2022-08-14T08:14:00;19.58;;;15.80;;
6564;SDS011;3316;44.118;27.258;2022-08-14T08:16:30;23.27;;;15.30;;
6564;SDS011;3316;44.118;27.258;2022-08-14T08:18:57;24.48;;;15.30;;
6564;SDS011;3316;44.118;27.258;2022-08-14T08:21:23;23.40;;;15.65;;
6564;SDS011;3316;44.118;27.258;2022-08-14T08:23:48;23.10;;;15.00;;
6564;SDS011;3316;44.118;27.258;2022-08-14T08:26:14;24.70;;;14.85;;
6564;SDS011;3316;44.118;27.258;2022-08-14T08:28:39;21.13;;;14.63;;
6564;SDS011;3316;44.118;27.258;2022-08-14T08:31:05;20.02;;;14.20;;
6564;SDS011;3316;44.118;27.258;2022-08-14T08:33:32;23.23;;;15.38;;
6564;SDS011;3316;44.118;27.258;2022-08-14T08:36:02;24.67;;;15.75;;
6564;SDS011;3316;44.118;27.258;2022-08-14T08:38:30;27.15;;;15.70;;
6564;SDS011;3316;44.118;27.258;2022-08-14T08:40:57;25.55;;;15.63;;
6564;SDS011;3316;44.118;27.258;2022-08-14T08:43:30;32.38;;;16.05;;
6564;SDS011;3316;44.118;27.258;2022-08-14T08:48:28;22.48;;;14.98;;
6564;SDS011;3316;44.118;27.258;2022-08-14T08:50:56;26.63;;;16.00;;
6564;SDS011;3316;44.118;27.258;2022-08-14T08:53:28;18.95;;;15.07;;
6564;SDS011;3316;44.118;27.258;2022-08-14T08:55:59;20.25;;;14.85;;
6564;SDS011;3316;44.118;27.258;2022-08-14T08:58:25;20.52;;;15.27;;
6564;SDS011;3316;44.118;27.258;2022-08-14T09:00:52;20.08;;;14.95;;
6564;SDS011;3316;44.118;27.258;2022-08-14T09:03:22;23.77;;;15.77;;
6564;SDS011;3316;44.118;27.258;2022-08-14T09:05:53;21.80;;;15.00;;
6564;SDS011;3316;44.118;27.258;2022-08-14T09:08:21;21.90;;;14.95;;
6564;SDS011;3316;44.118;27.258;2022-08-14T09:10:52;18.55;;;14.38;;
6564;SDS011;3316;44.118;27.258;2022-08-14T09:13:19;19.65;;;14.02;;
6564;SDS011;3316;44.118;27.258;2022-08-14T09:15:47;21.52;;;14.27;;
6564;SDS011;3316;44.118;27.258;2022-08-14T09:18:14;18.40;;;13.93;;
6564;SDS011;3316;44.118;27.258;2022-08-14T09:20:41;21.55;;;13.70;;
6564;SDS011;3316;44.118;27.258;2022-08-14T09:23:08;17.40;;;12.77;;
6564;SDS011;3316;44.118;27.258;2022-08-14T09:25:35;22.77;;;15.77;;
6564;SDS011;3316;44.118;27.258;2022-08-14T09:28:02;22.30;;;13.82;;
6564;SDS011;3316;44.118;27.258;2022-08-14T09:30:29;19.52;;;13.75;;
6564;SDS011;3316;44.118;27.258;2022-08-14T09:38:43;21.48;;;13.32;;
6564;SDS011;3316;44.118;27.258;2022-08-14T09:44:17;16.40;;;13.38;;
6564;SDS011;3316;44.118;27.258;2022-08-14T09:46:54;16.80;;;13.48;;
6564;SDS011;3316;44.118;27.258;2022-08-14T09:49:30;17.95;;;13.23;;
6564;SDS011;3316;44.118;27.258;2022-08-14T09:52:04;17.38;;;13.23;;
6564;SDS011;3316;44.118;27.258;2022-08-14T09:57:04;20.25;;;12.93;;
6564;SDS011;3316;44.118;27.258;2022-08-14T09:59:41;21.30;;;12.85;;
6564;SDS011;3316;44.118;27.258;2022-08-14T10:05:08;17.55;;;12.98;;
6564;SDS011;3316;44.118;27.258;2022-08-14T10:07:46;14.82;;;11.05;;
6564;SDS011;3316;44.118;27.258;2022-08-14T10:10:33;16.13;;;12.10;;
6564;SDS011;3316;44.118;27.258;2022-08-14T10:13:18;16.92;;;11.43;;
6564;SDS011;3316;44.118;27.258;2022-08-14T10:15:45;16.20;;;12.32;;
6564;SDS011;3316;44.118;27.258;2022-08-14T10:18:14;16.40;;;11.40;;
6564;SDS011;3316;44.118;27.258;2022-08-14T10:20:50;16.25;;;11.95;;
6564;SDS011;3316;44.118;27.258;2022-08-14T10:23:20;18.23;;;10.55;;
6564;SDS011;3316;44.118;27.258;2022-08-14T10:25:48;17.30;;;10.43;;
6564;SDS011;3316;44.118;27.258;2022-08-14T10:28:16;15.52;;;10.52;;
6564;SDS011;3316;44.118;27.258;2022-08-14T10:30:43;13.57;;;10.57;;
6564;SDS011;3316;44.118;27.258;2022-08-14T10:33:26;16.42;;;11.27;;
6564;SDS011;3316;44.118;27.258;2022-08-14T10:35:53;18.92;;;11.93;;
6564;SDS011;3316;44.118;27.258;2022-08-14T10:41:07;14.48;;;10.93;;
6564;SDS011;3316;44.118;27.258;2022-08-14T10:43:37;15.80;;;11.25;;
6564;SDS011;3316;44.118;27.258;2022-08-14T10:46:11;17.13;;;11.95;;
6564;SDS011;3316;44.118;27.258;2022-08-14T10:49:03;15.80;;;11.05;;
6564;SDS011;3316;44.118;27.258;2022-08-14T10:51:28;16.42;;;10.80;;
6564;SDS011;3316;44.118;27.258;2022-08-14T10:53:55;16.50;;;10.80;;
6564;SDS011;3316;44.118;27.258;2022-08-14T10:56:31;15.32;;;12.20;;
6564;SDS011;3316;44.118;27.258;2022-08-14T10:59:03;14.82;;;10.88;;
6564;SDS011;3316;44.118;27.258;2022-08-14T11:01:31;18.67;;;11.10;;
6564;SDS011;3316;44.118;27.258;2022-08-14T11:03:57;13.82;;;10.40;;
6564;SDS011;3316;44.118;27.258;2022-08-14T11:06:23;15.75;;;10.60;;
6564;SDS011;3316;44.118;27.258;2022-08-14T11:08:48;15.75;;;10.02;;
6564;SDS011;3316;44.118;27.258;2022-08-14T11:11:16;15.93;;;10.40;;
6564;SDS011;3316;44.118;27.258;2022-08-14T11:13:42;12.98;;;9.90;;
6564;SDS011;3316;44.118;27.258;2022-08-14T11:16:08;15.20;;;10.02;;
6564;SDS011;3316;44.118;27.258;2022-08-14T11:18:35;15.93;;;10.75;;
6564;SDS011;3316;44.118;27.258;2022-08-14T11:21:02;18.65;;;11.35;;
6564;SDS011;3316;44.118;27.258;2022-08-14T11:23:31;14.05;;;10.52;;
6564;SDS011;3316;44.118;27.258;2022-08-14T11:25:58;15.27;;;9.70;;
6564;SDS011;3316;44.118;27.258;2022-08-14T11:28:26;14.23;;;10.70;;
6564;SDS011;3316;44.118;27.258;2022-08-14T11:30:55;18.10;;;11.07;;
6564;SDS011;3316;44.118;27.258;2022-08-14T11:33:26;13.30;;;9.70;;
6564;SDS011;3316;44.118;27.258;2022-08-14T11:35:55;15.15;;;9.75;;
6564;SDS011;3316;44.118;27.258;2022-08-14T11:38:26;11.40;;;9.45;;
6564;SDS011;3316;44.118;27.258;2022-08-14T11:40:59;14.80;;;9.82;;
6564;SDS011;3316;44.118;27.258;2022-08-14T11:43:25;11.00;;;9.55;;
6564;SDS011;3316;44.118;27.258;2022-08-14T11:45:50;12.95;;;9.68;;
6564;SDS011;3316;44.118;27.258;2022-08-14T11:48:17;14.80;;;10.23;;
6564;SDS011;3316;44.118;27.258;2022-08-14T11:50:44;14.10;;;9.50;;
6564;SDS011;3316;44.118;27.258;2022-08-14T11:53:21;16.23;;;9.80;;
6564;SDS011;3316;44.118;27.258;2022-08-14T11:55:47;13.48;;;8.73;;
6564;SDS011;3316;44.118;27.258;2022-08-14T11:58:23;14.13;;;8.90;;
6564;SDS011;3316;44.118;27.258;2022-08-14T12:00:52;14.07;;;9.18;;
6564;SDS011;3316;44.118;27.258;2022-08-14T12:06:14;13.55;;;9.27;;
6564;SDS011;3316;44.118;27.258;2022-08-14T12:08:42;12.45;;;7.85;;
6564;SDS011;3316;44.118;27.258;2022-08-14T12:11:11;14.48;;;8.82;;
6564;SDS011;3316;44.118;27.258;2022-08-14T12:13:38;13.38;;;8.98;;
6564;SDS011;3316;44.118;27.258;2022-08-14T12:16:06;13.77;;;9.15;;
6564;SDS011;3316;44.118;27.258;2022-08-14T12:18:38;12.25;;;8.55;;
6564;SDS011;3316;44.118;27.258;2022-08-14T12:21:15;11.55;;;8.90;;
6564;SDS011;3316;44.118;27.258;2022-08-14T12:23:46;11.07;;;8.93;;
6564;SDS011;3316;44.118;27.258;2022-08-14T12:26:23;18.75;;;8.90;;
6564;SDS011;3316;44.118;27.258;2022-08-14T12:28:49;22.15;;;8.93;;
6564;SDS011;3316;44.118;27.258;2022-08-14T12:31:19;14.00;;;9.10;;
6564;SDS011;3316;44.118;27.258;2022-08-14T12:33:55;14.40;;;9.30;;
6564;SDS011;3316;44.118;27.258;2022-08-14T12:36:25;13.98;;;9.35;;
6564;SDS011;3316;44.118;27.258;2022-08-14T12:38:54;26.70;;;13.38;;
6564;SDS011;3316;44.118;27.258;2022-08-14T12:41:21;18.17;;;9.80;;
6564;SDS011;3316;44.118;27.258;2022-08-14T12:43:52;13.43;;;9.80;;
6564;SDS011;3316;44.118;27.258;2022-08-14T12:46:33;13.77;;;10.55;;
6564;SDS011;3316;44.118;27.258;2022-08-14T12:49:34;13.68;;;9.45;;
6564;SDS011;3316;44.118;27.258;2022-08-14T12:51:56;14.65;;;10.32;;
6564;SDS011;3316;44.118;27.258;2022-08-14T12:54:23;15.18;;;10.70;;
6564;SDS011;3316;44.118;27.258;2022-08-14T12:56:49;13.93;;;10.15;;
6564;SDS011;3316;44.118;27.258;2022-08-14T12:59:14;19.40;;;11.55;;
6564;SDS011;3316;44.118;27.258;2022-08-14T13:01:41;24.85;;;13.70;;
6564;SDS011;3316;44.118;27.258;2022-08-14T13:04:13;19.17;;;12.90;;
6564;SDS011;3316;44.118;27.258;2022-08-14T13:06:41;22.38;;;14.68;;
6564;SDS011;3316;44.118;27.258;2022-08-14T13:09:09;17.88;;;10.43;;
6564;SDS011;3316;44.118;27.258;2022-08-14T13:11:37;24.40;;;14.07;;
6564;SDS011;3316;44.118;27.258;2022-08-14T13:14:09;23.60;;;13.25;;
6564;SDS011;3316;44.118;27.258;2022-08-14T13:16:38;30.63;;;16.63;;
6564;SDS011;3316;44.118;27.258;2022-08-14T13:19:06;16.02;;;11.00;;
6564;SDS011;3316;44.118;27.258;2022-08-14T13:21:38;17.30;;;12.77;;
6564;SDS011;3316;44.118;27.258;2022-08-14T13:24:04;18.95;;;12.77;;
6564;SDS011;3316;44.118;27.258;2022-08-14T13:26:29;17.65;;;10.90;;
6564;SDS011;3316;44.118;27.258;2022-08-14T13:28:56;16.00;;;10.63;;
6564;SDS011;3316;44.118;27.258;2022-08-14T13:31:26;16.15;;;10.65;;
6564;SDS011;3316;44.118;27.258;2022-08-14T13:33:54;19.20;;;11.93;;
6564;SDS011;3316;44.118;27.258;2022-08-14T13:36:21;18.00;;;11.77;;
6564;SDS011;3316;44.118;27.258;2022-08-14T13:38:51;25.38;;;14.93;;
6564;SDS011;3316;44.118;27.258;2022-08-14T13:41:17;17.13;;;11.57;;
6564;SDS011;3316;44.118;27.258;2022-08-14T13:43:48;16.42;;;10.80;;
6564;SDS011;3316;44.118;27.258;2022-08-14T13:46:15;20.10;;;11.02;;
6564;SDS011;3316;44.118;27.258;2022-08-14T13:48:43;17.33;;;12.65;;
6564;SDS011;3316;44.118;27.258;2022-08-14T13:51:09;18.65;;;11.75;;
6564;SDS011;3316;44.118;27.258;2022-08-14T13:53:40;17.52;;;11.50;;
6564;SDS011;3316;44.118;27.258;2022-08-14T13:56:13;25.30;;;11.80;;
6564;SDS011;3316;44.118;27.258;2022-08-14T13:58:40;15.45;;;10.27;;
6564;SDS011;3316;44.118;27.258;2022-08-14T14:01:12;15.82;;;10.48;;
6564;SDS011;3316;44.118;27.258;2022-08-14T14:03:41;14.05;;;10.40;;
6564;SDS011;3316;44.118;27.258;2022-08-14T14:06:10;14.23;;;10.20;;
6564;SDS011;3316;44.118;27.258;2022-08-14T14:08:38;15.38;;;10.30;;
6564;SDS011;3316;44.118;27.258;2022-08-14T14:11:11;17.42;;;10.38;;
6564;SDS011;3316;44.118;27.258;2022-08-14T14:13:37;11.98;;;8.45;;
6564;SDS011;3316;44.118;27.258;2022-08-14T14:16:07;13.95;;;9.40;;
6564;SDS011;3316;44.118;27.258;2022-08-14T14:18:35;11.50;;;6.90;;
6564;SDS011;3316;44.118;27.258;2022-08-14T14:21:01;15.43;;;8.77;;
6564;SDS011;3316;44.118;27.258;2022-08-14T14:23:28;14.60;;;7.95;;
6564;SDS011;3316;44.118;27.258;2022-08-14T14:25:55;13.82;;;8.68;;
6564;SDS011;3316;44.118;27.258;2022-08-14T14:28:21;14.05;;;8.15;;
6564;SDS011;3316;44.118;27.258;2022-08-14T14:30:52;11.40;;;6.82;;
6564;SDS011;3316;44.118;27.258;2022-08-14T14:33:20;11.32;;;6.78;;
6564;SDS011;3316;44.118;27.258;2022-08-14T14:35:48;10.02;;;7.18;;
6564;SDS011;3316;44.118;27.258;2022-08-14T14:38:15;12.68;;;8.38;;
6564;SDS011;3316;44.118;27.258;2022-08-14T14:40:42;13.68;;;8.35;;
6564;SDS011;3316;44.118;27.258;2022-08-14T14:43:11;17.50;;;9.02;;
6564;SDS011;3316;44.118;27.258;2022-08-14T14:45:39;13.93;;;7.70;;
6564;SDS011;3316;44.118;27.258;2022-08-14T14:48:09;13.15;;;8.23;;
6564;SDS011;3316;44.118;27.258;2022-08-14T14:50:36;13.50;;;8.32;;
6564;SDS011;3316;44.118;27.258;2022-08-14T14:53:05;14.63;;;8.13;;
6564;SDS011;3316;44.118;27.258;2022-08-14T14:55:32;12.68;;;8.40;;
6564;SDS011;3316;44.118;27.258;2022-08-14T14:57:58;15.85;;;8.65;;
6564;SDS011;3316;44.118;27.258;2022-08-14T15:00:24;18.55;;;8.80;;
6564;SDS011;3316;44.118;27.258;2022-08-14T15:02:50;16.55;;;9.55;;
6564;SDS011;3316;44.118;27.258;2022-08-14T15:05:18;14.43;;;8.23;;
6564;SDS011;3316;44.118;27.258;2022-08-14T15:07:46;36.92;;;17.00;;
6564;SDS011;3316;44.118;27.258;2022-08-14T15:10:13;28.38;;;13.65;;